sensor_id;sensor_type;location;lat;lon;timestamp;temperature;humidity
12156;DHT22;6141;49.092;8.516;2023-07-29T00:01:47;19.60;70.30
12156;DHT22;6141;49.092;8.516;2023-07-29T00:04:16;19.90;68.20
12156;DHT22;6141;49.092;8.516;2023-07-29T00:06:45;19.80;69.00
12156;DHT22;6141;49.092;8.516;2023-07-29T00:09:13;20.00;68.70
12156;DHT22;6141;49.092;8.516;2023-07-29T00:11:41;20.00;68.00
12156;DHT22;6141;49.092;8.516;2023-07-29T00:14:09;20.10;67.80
12156;DHT22;6141;49.092;8.516;2023-07-29T00:16:37;20.30;67.10
12156;DHT22;6141;49.092;8.516;2023-07-29T00:19:06;20.30;66.80
12156;DHT22;6141;49.092;8.516;2023-07-29T00:21:34;20.30;67.00
12156;DHT22;6141;49.092;8.516;2023-07-29T00:24:03;19.90;69.10
12156;DHT22;6141;49.092;8.516;2023-07-29T00:26:31;19.70;71.00
12156;DHT22;6141;49.092;8.516;2023-07-29T00:29:00;19.80;70.50
12156;DHT22;6141;49.092;8.516;2023-07-29T00:31:28;20.10;69.90
12156;DHT22;6141;49.092;8.516;2023-07-29T00:33:57;20.20;69.40
12156;DHT22;6141;49.092;8.516;2023-07-29T00:36:25;19.80;71.00
12156;DHT22;6141;49.092;8.516;2023-07-29T00:38:53;19.70;71.20
12156;DHT22;6141;49.092;8.516;2023-07-29T00:41:25;19.80;71.50
12156;DHT22;6141;49.092;8.516;2023-07-29T00:43:53;19.90;69.90
12156;DHT22;6141;49.092;8.516;2023-07-29T00:46:22;20.10;69.30
12156;DHT22;6141;49.092;8.516;2023-07-29T00:48:50;20.10;69.00
12156;DHT22;6141;49.092;8.516;2023-07-29T00:51:19;20.20;68.20
12156;DHT22;6141;49.092;8.516;2023-07-29T00:53:48;20.40;67.30
12156;DHT22;6141;49.092;8.516;2023-07-29T00:56:16;20.50;67.10
12156;DHT22;6141;49.092;8.516;2023-07-29T00:58:46;20.50;66.60
12156;DHT22;6141;49.092;8.516;2023-07-29T01:01:14;20.40;67.50
12156;DHT22;6141;49.092;8.516;2023-07-29T01:03:42;20.30;68.50
12156;DHT22;6141;49.092;8.516;2023-07-29T01:06:17;20.00;70.20
12156;DHT22;6141;49.092;8.516;2023-07-29T01:08:53;20.00;70.70
12156;DHT22;6141;49.092;8.516;2023-07-29T01:11:33;19.80;71.20
12156;DHT22;6141;49.092;8.516;2023-07-29T01:14:13;19.90;70.60
12156;DHT22;6141;49.092;8.516;2023-07-29T01:16:47;20.00;69.70
12156;DHT22;6141;49.092;8.516;2023-07-29T01:19:27;20.30;68.50
12156;DHT22;6141;49.092;8.516;2023-07-29T01:22:03;20.40;67.70
12156;DHT22;6141;49.092;8.516;2023-07-29T01:24:33;20.50;66.60
12156;DHT22;6141;49.092;8.516;2023-07-29T01:27:01;20.60;66.30
12156;DHT22;6141;49.092;8.516;2023-07-29T01:29:31;20.50;66.20
12156;DHT22;6141;49.092;8.516;2023-07-29T01:32:18;20.40;66.10
12156;DHT22;6141;49.092;8.516;2023-07-29T01:34:53;20.50;66.30
12156;DHT22;6141;49.092;8.516;2023-07-29T01:37:26;20.20;67.50
12156;DHT22;6141;49.092;8.516;2023-07-29T01:40:00;19.50;70.70
12156;DHT22;6141;49.092;8.516;2023-07-29T01:42:29;19.30;72.00
12156;DHT22;6141;49.092;8.516;2023-07-29T01:44:58;19.60;70.30
12156;DHT22;6141;49.092;8.516;2023-07-29T01:47:27;19.80;68.50
12156;DHT22;6141;49.092;8.516;2023-07-29T01:49:55;20.00;67.00
12156;DHT22;6141;49.092;8.516;2023-07-29T01:52:23;20.20;65.90
12156;DHT22;6141;49.092;8.516;2023-07-29T01:54:51;20.00;66.20
12156;DHT22;6141;49.092;8.516;2023-07-29T01:57:23;19.80;67.80
12156;DHT22;6141;49.092;8.516;2023-07-29T01:59:51;19.40;69.60
12156;DHT22;6141;49.092;8.516;2023-07-29T02:02:19;19.00;71.60
12156;DHT22;6141;49.092;8.516;2023-07-29T02:04:47;19.00;72.70
12156;DHT22;6141;49.092;8.516;2023-07-29T02:07:18;19.30;71.30
12156;DHT22;6141;49.092;8.516;2023-07-29T02:09:46;19.70;71.10
12156;DHT22;6141;49.092;8.516;2023-07-29T02:12:14;19.70;70.30
12156;DHT22;6141;49.092;8.516;2023-07-29T02:14:44;19.80;68.80
12156;DHT22;6141;49.092;8.516;2023-07-29T02:17:12;19.80;68.70
12156;DHT22;6141;49.092;8.516;2023-07-29T02:19:40;19.80;68.60
12156;DHT22;6141;49.092;8.516;2023-07-29T02:22:09;19.80;68.80
12156;DHT22;6141;49.092;8.516;2023-07-29T02:24:37;20.00;68.30
12156;DHT22;6141;49.092;8.516;2023-07-29T02:27:06;20.10;67.90
12156;DHT22;6141;49.092;8.516;2023-07-29T02:29:34;20.30;67.50
12156;DHT22;6141;49.092;8.516;2023-07-29T02:32:04;20.30;67.40
12156;DHT22;6141;49.092;8.516;2023-07-29T02:34:32;20.40;67.30
12156;DHT22;6141;49.092;8.516;2023-07-29T02:37:00;20.20;68.40
12156;DHT22;6141;49.092;8.516;2023-07-29T02:39:28;20.30;68.80
12156;DHT22;6141;49.092;8.516;2023-07-29T02:41:56;20.20;69.40
12156;DHT22;6141;49.092;8.516;2023-07-29T02:44:25;20.10;69.10
12156;DHT22;6141;49.092;8.516;2023-07-29T02:46:53;20.30;68.90
12156;DHT22;6141;49.092;8.516;2023-07-29T02:49:24;20.30;68.30
12156;DHT22;6141;49.092;8.516;2023-07-29T02:51:52;20.40;67.80
12156;DHT22;6141;49.092;8.516;2023-07-29T02:54:20;20.40;67.90
12156;DHT22;6141;49.092;8.516;2023-07-29T02:56:49;20.50;68.00
12156;DHT22;6141;49.092;8.516;2023-07-29T02:59:17;20.50;67.30
12156;DHT22;6141;49.092;8.516;2023-07-29T03:01:45;20.50;67.50
12156;DHT22;6141;49.092;8.516;2023-07-29T03:04:13;19.90;70.60
12156;DHT22;6141;49.092;8.516;2023-07-29T03:06:43;19.70;72.10
12156;DHT22;6141;49.092;8.516;2023-07-29T03:09:11;19.90;71.00
12156;DHT22;6141;49.092;8.516;2023-07-29T03:11:39;20.10;69.70
12156;DHT22;6141;49.092;8.516;2023-07-29T03:14:07;20.30;68.50
12156;DHT22;6141;49.092;8.516;2023-07-29T03:16:35;20.30;68.00
12156;DHT22;6141;49.092;8.516;2023-07-29T03:19:03;20.40;68.00
12156;DHT22;6141;49.092;8.516;2023-07-29T03:21:33;20.40;68.20
12156;DHT22;6141;49.092;8.516;2023-07-29T03:24:02;20.20;69.70
12156;DHT22;6141;49.092;8.516;2023-07-29T03:26:30;20.10;69.70
12156;DHT22;6141;49.092;8.516;2023-07-29T03:28:59;20.10;69.30
12156;DHT22;6141;49.092;8.516;2023-07-29T03:31:27;20.30;69.00
12156;DHT22;6141;49.092;8.516;2023-07-29T03:33:55;20.30;69.10
12156;DHT22;6141;49.092;8.516;2023-07-29T03:36:23;19.70;72.30
12156;DHT22;6141;49.092;8.516;2023-07-29T03:38:52;19.50;74.00
12156;DHT22;6141;49.092;8.516;2023-07-29T03:41:22;19.60;73.40
12156;DHT22;6141;49.092;8.516;2023-07-29T03:43:50;19.70;72.70
12156;DHT22;6141;49.092;8.516;2023-07-29T03:46:18;19.80;72.00
12156;DHT22;6141;49.092;8.516;2023-07-29T03:48:48;19.90;71.20
12156;DHT22;6141;49.092;8.516;2023-07-29T03:51:16;19.90;72.40
12156;DHT22;6141;49.092;8.516;2023-07-29T03:53:45;19.70;72.70
12156;DHT22;6141;49.092;8.516;2023-07-29T03:56:13;19.80;71.80
12156;DHT22;6141;49.092;8.516;2023-07-29T03:58:42;19.90;71.80
12156;DHT22;6141;49.092;8.516;2023-07-29T04:01:11;20.00;71.10
12156;DHT22;6141;49.092;8.516;2023-07-29T04:03:39;20.00;72.30
12156;DHT22;6141;49.092;8.516;2023-07-29T04:06:07;19.80;73.10
12156;DHT22;6141;49.092;8.516;2023-07-29T04:08:35;19.80;73.50
12156;DHT22;6141;49.092;8.516;2023-07-29T04:11:04;20.00;72.80
12156;DHT22;6141;49.092;8.516;2023-07-29T04:13:32;19.90;73.30
12156;DHT22;6141;49.092;8.516;2023-07-29T04:16:01;19.80;75.40
12156;DHT22;6141;49.092;8.516;2023-07-29T04:18:29;19.30;79.70
12156;DHT22;6141;49.092;8.516;2023-07-29T04:20:57;18.90;85.20
12156;DHT22;6141;49.092;8.516;2023-07-29T04:23:25;18.60;90.70
12156;DHT22;6141;49.092;8.516;2023-07-29T04:25:54;18.40;92.70
12156;DHT22;6141;49.092;8.516;2023-07-29T04:28:22;18.20;94.40
12156;DHT22;6141;49.092;8.516;2023-07-29T04:30:50;18.10;95.90
12156;DHT22;6141;49.092;8.516;2023-07-29T04:33:19;18.00;98.00
12156;DHT22;6141;49.092;8.516;2023-07-29T04:35:48;18.00;98.90
12156;DHT22;6141;49.092;8.516;2023-07-29T04:38:16;18.10;99.00
12156;DHT22;6141;49.092;8.516;2023-07-29T04:40:44;18.20;99.80
12156;DHT22;6141;49.092;8.516;2023-07-29T04:43:13;18.30;99.40
12156;DHT22;6141;49.092;8.516;2023-07-29T04:45:42;18.40;99.10
12156;DHT22;6141;49.092;8.516;2023-07-29T04:48:11;18.50;99.00
12156;DHT22;6141;49.092;8.516;2023-07-29T04:50:40;18.50;98.40
12156;DHT22;6141;49.092;8.516;2023-07-29T04:53:08;18.60;97.80
12156;DHT22;6141;49.092;8.516;2023-07-29T04:55:37;18.80;96.50
12156;DHT22;6141;49.092;8.516;2023-07-29T04:58:05;18.90;95.40
12156;DHT22;6141;49.092;8.516;2023-07-29T05:00:33;19.10;94.10
12156;DHT22;6141;49.092;8.516;2023-07-29T05:03:02;19.30;93.20
12156;DHT22;6141;49.092;8.516;2023-07-29T05:05:31;19.30;92.80
12156;DHT22;6141;49.092;8.516;2023-07-29T05:08:01;19.50;92.20
12156;DHT22;6141;49.092;8.516;2023-07-29T05:10:29;19.50;91.30
12156;DHT22;6141;49.092;8.516;2023-07-29T05:12:57;19.60;90.60
12156;DHT22;6141;49.092;8.516;2023-07-29T05:15:25;19.80;88.90
12156;DHT22;6141;49.092;8.516;2023-07-29T05:17:53;19.80;88.00
12156;DHT22;6141;49.092;8.516;2023-07-29T05:20:21;19.60;88.30
12156;DHT22;6141;49.092;8.516;2023-07-29T05:22:49;19.60;89.20
12156;DHT22;6141;49.092;8.516;2023-07-29T05:25:19;19.80;87.60
12156;DHT22;6141;49.092;8.516;2023-07-29T05:27:47;20.00;85.80
12156;DHT22;6141;49.092;8.516;2023-07-29T05:30:15;20.10;83.70
12156;DHT22;6141;49.092;8.516;2023-07-29T05:32:43;20.00;84.00
12156;DHT22;6141;49.092;8.516;2023-07-29T05:35:11;19.90;84.90
12156;DHT22;6141;49.092;8.516;2023-07-29T05:37:40;20.00;83.90
12156;DHT22;6141;49.092;8.516;2023-07-29T05:40:08;20.20;82.80
12156;DHT22;6141;49.092;8.516;2023-07-29T05:42:39;20.20;82.80
12156;DHT22;6141;49.092;8.516;2023-07-29T05:45:08;20.30;81.10
12156;DHT22;6141;49.092;8.516;2023-07-29T05:47:37;20.50;79.80
12156;DHT22;6141;49.092;8.516;2023-07-29T05:50:06;20.70;77.80
12156;DHT22;6141;49.092;8.516;2023-07-29T05:52:34;20.80;76.20
12156;DHT22;6141;49.092;8.516;2023-07-29T05:55:03;20.90;76.30
12156;DHT22;6141;49.092;8.516;2023-07-29T05:57:31;20.70;76.10
12156;DHT22;6141;49.092;8.516;2023-07-29T06:00:00;20.70;75.80
12156;DHT22;6141;49.092;8.516;2023-07-29T06:02:38;20.70;76.10
12156;DHT22;6141;49.092;8.516;2023-07-29T06:05:11;20.80;76.20
12156;DHT22;6141;49.092;8.516;2023-07-29T06:07:39;20.60;77.40
12156;DHT22;6141;49.092;8.516;2023-07-29T06:10:12;20.50;78.00
12156;DHT22;6141;49.092;8.516;2023-07-29T06:12:41;20.50;77.90
12156;DHT22;6141;49.092;8.516;2023-07-29T06:15:11;20.70;77.60
12156;DHT22;6141;49.092;8.516;2023-07-29T06:17:41;20.70;78.10
12156;DHT22;6141;49.092;8.516;2023-07-29T06:20:10;20.50;79.80
12156;DHT22;6141;49.092;8.516;2023-07-29T06:22:38;20.50;80.80
12156;DHT22;6141;49.092;8.516;2023-07-29T06:25:06;20.30;81.30
12156;DHT22;6141;49.092;8.516;2023-07-29T06:27:35;20.40;81.30
12156;DHT22;6141;49.092;8.516;2023-07-29T06:30:03;20.30;81.80
12156;DHT22;6141;49.092;8.516;2023-07-29T06:32:34;20.20;84.10
12156;DHT22;6141;49.092;8.516;2023-07-29T06:35:02;20.20;84.20
12156;DHT22;6141;49.092;8.516;2023-07-29T06:37:30;20.20;84.70
12156;DHT22;6141;49.092;8.516;2023-07-29T06:40:00;20.20;85.60
12156;DHT22;6141;49.092;8.516;2023-07-29T06:42:28;20.10;88.00
12156;DHT22;6141;49.092;8.516;2023-07-29T06:44:56;20.00;90.30
12156;DHT22;6141;49.092;8.516;2023-07-29T06:47:24;20.10;90.70
12156;DHT22;6141;49.092;8.516;2023-07-29T06:49:54;20.00;90.80
12156;DHT22;6141;49.092;8.516;2023-07-29T06:52:22;20.10;91.40
12156;DHT22;6141;49.092;8.516;2023-07-29T06:54:50;20.00;91.80
12156;DHT22;6141;49.092;8.516;2023-07-29T06:57:18;19.80;92.60
12156;DHT22;6141;49.092;8.516;2023-07-29T06:59:46;19.80;93.70
12156;DHT22;6141;49.092;8.516;2023-07-29T07:02:14;19.80;93.80
12156;DHT22;6141;49.092;8.516;2023-07-29T07:04:42;19.80;93.80
12156;DHT22;6141;49.092;8.516;2023-07-29T07:07:12;19.70;94.50
12156;DHT22;6141;49.092;8.516;2023-07-29T07:09:40;19.70;95.70
12156;DHT22;6141;49.092;8.516;2023-07-29T07:12:08;19.70;96.40
12156;DHT22;6141;49.092;8.516;2023-07-29T07:14:37;19.70;96.60
12156;DHT22;6141;49.092;8.516;2023-07-29T07:17:05;19.80;96.20
12156;DHT22;6141;49.092;8.516;2023-07-29T07:19:36;19.90;96.10
12156;DHT22;6141;49.092;8.516;2023-07-29T07:22:04;19.80;96.10
12156;DHT22;6141;49.092;8.516;2023-07-29T07:24:34;19.90;95.80
12156;DHT22;6141;49.092;8.516;2023-07-29T07:27:02;19.90;95.50
12156;DHT22;6141;49.092;8.516;2023-07-29T07:29:30;19.90;95.40
12156;DHT22;6141;49.092;8.516;2023-07-29T07:31:58;19.90;95.60
12156;DHT22;6141;49.092;8.516;2023-07-29T07:34:26;19.80;95.30
12156;DHT22;6141;49.092;8.516;2023-07-29T07:36:54;19.80;95.00
12156;DHT22;6141;49.092;8.516;2023-07-29T07:39:22;19.70;95.70
12156;DHT22;6141;49.092;8.516;2023-07-29T07:41:52;19.80;95.80
12156;DHT22;6141;49.092;8.516;2023-07-29T07:44:20;19.90;96.00
12156;DHT22;6141;49.092;8.516;2023-07-29T07:46:48;19.80;95.70
12156;DHT22;6141;49.092;8.516;2023-07-29T07:49:16;19.80;96.60
12156;DHT22;6141;49.092;8.516;2023-07-29T07:51:44;19.90;96.60
12156;DHT22;6141;49.092;8.516;2023-07-29T07:54:12;20.00;95.80
12156;DHT22;6141;49.092;8.516;2023-07-29T07:56:41;20.00;95.80
12156;DHT22;6141;49.092;8.516;2023-07-29T07:59:10;20.10;95.70
12156;DHT22;6141;49.092;8.516;2023-07-29T08:01:41;20.20;95.20
12156;DHT22;6141;49.092;8.516;2023-07-29T08:04:09;20.20;95.00
12156;DHT22;6141;49.092;8.516;2023-07-29T08:06:37;20.30;94.80
12156;DHT22;6141;49.092;8.516;2023-07-29T08:09:05;20.30;94.40
12156;DHT22;6141;49.092;8.516;2023-07-29T08:11:33;20.50;93.90
12156;DHT22;6141;49.092;8.516;2023-07-29T08:14:02;20.70;93.30
12156;DHT22;6141;49.092;8.516;2023-07-29T08:16:31;20.80;92.20
12156;DHT22;6141;49.092;8.516;2023-07-29T08:18:59;20.80;92.10
12156;DHT22;6141;49.092;8.516;2023-07-29T08:21:28;20.70;91.80
12156;DHT22;6141;49.092;8.516;2023-07-29T08:23:56;20.80;92.00
12156;DHT22;6141;49.092;8.516;2023-07-29T08:26:24;20.90;92.00
12156;DHT22;6141;49.092;8.516;2023-07-29T08:28:52;20.90;91.30
12156;DHT22;6141;49.092;8.516;2023-07-29T08:31:21;21.00;91.50
12156;DHT22;6141;49.092;8.516;2023-07-29T08:33:50;21.20;90.50
12156;DHT22;6141;49.092;8.516;2023-07-29T08:36:18;21.20;90.70
12156;DHT22;6141;49.092;8.516;2023-07-29T08:38:47;21.20;90.10
12156;DHT22;6141;49.092;8.516;2023-07-29T08:41:19;21.40;90.90
12156;DHT22;6141;49.092;8.516;2023-07-29T08:43:52;21.50;90.70
12156;DHT22;6141;49.092;8.516;2023-07-29T08:46:20;21.40;90.30
12156;DHT22;6141;49.092;8.516;2023-07-29T08:48:49;21.50;90.00
12156;DHT22;6141;49.092;8.516;2023-07-29T08:51:19;21.30;90.80
12156;DHT22;6141;49.092;8.516;2023-07-29T08:53:49;21.20;91.30
12156;DHT22;6141;49.092;8.516;2023-07-29T08:56:17;21.30;91.70
12156;DHT22;6141;49.092;8.516;2023-07-29T08:58:46;21.20;92.60
12156;DHT22;6141;49.092;8.516;2023-07-29T09:01:15;21.20;91.60
12156;DHT22;6141;49.092;8.516;2023-07-29T09:03:43;21.20;90.40
12156;DHT22;6141;49.092;8.516;2023-07-29T09:06:12;21.20;91.90
12156;DHT22;6141;49.092;8.516;2023-07-29T09:08:43;21.20;90.90
12156;DHT22;6141;49.092;8.516;2023-07-29T09:11:13;21.30;91.60
12156;DHT22;6141;49.092;8.516;2023-07-29T09:13:43;21.40;92.10
12156;DHT22;6141;49.092;8.516;2023-07-29T09:16:12;21.70;90.30
12156;DHT22;6141;49.092;8.516;2023-07-29T09:18:41;21.70;90.00
12156;DHT22;6141;49.092;8.516;2023-07-29T09:21:09;21.70;89.00
12156;DHT22;6141;49.092;8.516;2023-07-29T09:23:41;21.40;87.50
12156;DHT22;6141;49.092;8.516;2023-07-29T09:26:11;21.30;88.20
12156;DHT22;6141;49.092;8.516;2023-07-29T09:28:39;21.40;90.40
12156;DHT22;6141;49.092;8.516;2023-07-29T09:31:19;21.40;87.00
12156;DHT22;6141;49.092;8.516;2023-07-29T09:33:47;21.40;89.10
12156;DHT22;6141;49.092;8.516;2023-07-29T09:36:16;21.50;90.00
12156;DHT22;6141;49.092;8.516;2023-07-29T09:38:44;21.70;90.40
12156;DHT22;6141;49.092;8.516;2023-07-29T09:41:15;21.60;85.40
12156;DHT22;6141;49.092;8.516;2023-07-29T09:43:44;21.70;84.50
12156;DHT22;6141;49.092;8.516;2023-07-29T09:46:12;21.90;89.30
12156;DHT22;6141;49.092;8.516;2023-07-29T09:48:40;22.20;83.70
12156;DHT22;6141;49.092;8.516;2023-07-29T09:51:10;22.30;81.60
12156;DHT22;6141;49.092;8.516;2023-07-29T09:53:40;22.50;80.50
12156;DHT22;6141;49.092;8.516;2023-07-29T09:56:14;22.70;78.40
12156;DHT22;6141;49.092;8.516;2023-07-29T09:58:43;22.80;74.10
12156;DHT22;6141;49.092;8.516;2023-07-29T10:01:12;23.10;75.10
12156;DHT22;6141;49.092;8.516;2023-07-29T10:03:41;23.20;68.50
12156;DHT22;6141;49.092;8.516;2023-07-29T10:06:10;23.30;69.10
12156;DHT22;6141;49.092;8.516;2023-07-29T10:08:39;23.10;70.00
12156;DHT22;6141;49.092;8.516;2023-07-29T10:11:09;23.20;70.60
12156;DHT22;6141;49.092;8.516;2023-07-29T10:13:39;23.10;69.70
12156;DHT22;6141;49.092;8.516;2023-07-29T10:16:09;22.90;68.20
12156;DHT22;6141;49.092;8.516;2023-07-29T10:18:38;23.00;71.00
12156;DHT22;6141;49.092;8.516;2023-07-29T10:21:07;23.10;69.60
12156;DHT22;6141;49.092;8.516;2023-07-29T10:23:38;23.00;67.20
12156;DHT22;6141;49.092;8.516;2023-07-29T10:26:10;22.90;68.80
12156;DHT22;6141;49.092;8.516;2023-07-29T10:28:41;22.90;68.20
12156;DHT22;6141;49.092;8.516;2023-07-29T10:31:16;22.90;67.60
12156;DHT22;6141;49.092;8.516;2023-07-29T10:33:44;22.80;68.80
12156;DHT22;6141;49.092;8.516;2023-07-29T10:36:13;22.90;68.20
12156;DHT22;6141;49.092;8.516;2023-07-29T10:38:42;23.00;69.40
12156;DHT22;6141;49.092;8.516;2023-07-29T10:41:10;23.20;67.80
12156;DHT22;6141;49.092;8.516;2023-07-29T10:43:40;23.30;68.30
12156;DHT22;6141;49.092;8.516;2023-07-29T10:46:18;23.60;69.10
12156;DHT22;6141;49.092;8.516;2023-07-29T10:48:54;23.80;65.70
12156;DHT22;6141;49.092;8.516;2023-07-29T10:51:27;24.10;64.20
12156;DHT22;6141;49.092;8.516;2023-07-29T10:53:58;24.30;59.10
12156;DHT22;6141;49.092;8.516;2023-07-29T10:56:28;24.20;59.00
12156;DHT22;6141;49.092;8.516;2023-07-29T10:58:59;24.20;59.00
12156;DHT22;6141;49.092;8.516;2023-07-29T11:01:30;23.90;59.90
12156;DHT22;6141;49.092;8.516;2023-07-29T11:04:22;24.00;60.50
12156;DHT22;6141;49.092;8.516;2023-07-29T11:07:20;24.10;56.40
12156;DHT22;6141;49.092;8.516;2023-07-29T11:09:58;24.00;56.50
12156;DHT22;6141;49.092;8.516;2023-07-29T11:12:45;24.20;52.70
12156;DHT22;6141;49.092;8.516;2023-07-29T11:15:21;24.40;50.50
12156;DHT22;6141;49.092;8.516;2023-07-29T11:17:51;24.60;51.70
12156;DHT22;6141;49.092;8.516;2023-07-29T11:20:21;24.40;47.80
12156;DHT22;6141;49.092;8.516;2023-07-29T11:22:49;24.40;46.60
12156;DHT22;6141;49.092;8.516;2023-07-29T11:25:18;24.50;49.50
12156;DHT22;6141;49.092;8.516;2023-07-29T11:27:46;24.60;46.70
12156;DHT22;6141;49.092;8.516;2023-07-29T11:30:16;24.40;42.30
12156;DHT22;6141;49.092;8.516;2023-07-29T11:32:45;24.10;43.00
12156;DHT22;6141;49.092;8.516;2023-07-29T11:35:14;24.10;45.30
12156;DHT22;6141;49.092;8.516;2023-07-29T11:37:45;24.10;46.00
12156;DHT22;6141;49.092;8.516;2023-07-29T11:40:14;24.10;43.70
12156;DHT22;6141;49.092;8.516;2023-07-29T11:42:43;24.10;45.30
12156;DHT22;6141;49.092;8.516;2023-07-29T11:45:13;24.20;44.00
12156;DHT22;6141;49.092;8.516;2023-07-29T11:47:45;24.20;43.10
12156;DHT22;6141;49.092;8.516;2023-07-29T11:50:15;24.00;39.70
12156;DHT22;6141;49.092;8.516;2023-07-29T11:52:45;24.00;43.70
12156;DHT22;6141;49.092;8.516;2023-07-29T11:55:14;23.90;46.80
12156;DHT22;6141;49.092;8.516;2023-07-29T11:57:43;23.60;48.90
12156;DHT22;6141;49.092;8.516;2023-07-29T12:00:12;23.50;51.20
12156;DHT22;6141;49.092;8.516;2023-07-29T12:02:45;23.50;49.00
12156;DHT22;6141;49.092;8.516;2023-07-29T12:05:14;23.50;48.00
12156;DHT22;6141;49.092;8.516;2023-07-29T12:07:43;23.70;50.00
12156;DHT22;6141;49.092;8.516;2023-07-29T12:10:12;23.90;52.50
12156;DHT22;6141;49.092;8.516;2023-07-29T12:12:46;24.20;49.00
12156;DHT22;6141;49.092;8.516;2023-07-29T12:15:23;24.30;46.90
12156;DHT22;6141;49.092;8.516;2023-07-29T12:17:56;24.50;46.60
12156;DHT22;6141;49.092;8.516;2023-07-29T12:20:25;24.70;47.40
12156;DHT22;6141;49.092;8.516;2023-07-29T12:22:56;24.90;47.10
12156;DHT22;6141;49.092;8.516;2023-07-29T12:25:25;25.10;45.40
12156;DHT22;6141;49.092;8.516;2023-07-29T12:27:54;25.30;43.40
12156;DHT22;6141;49.092;8.516;2023-07-29T12:30:22;25.30;44.40
12156;DHT22;6141;49.092;8.516;2023-07-29T12:32:51;25.50;45.20
12156;DHT22;6141;49.092;8.516;2023-07-29T12:35:20;25.50;40.20
12156;DHT22;6141;49.092;8.516;2023-07-29T12:37:58;25.50;41.10
12156;DHT22;6141;49.092;8.516;2023-07-29T12:40:27;25.50;40.30
12156;DHT22;6141;49.092;8.516;2023-07-29T12:42:57;25.50;40.50
12156;DHT22;6141;49.092;8.516;2023-07-29T12:45:25;25.40;38.10
12156;DHT22;6141;49.092;8.516;2023-07-29T12:47:55;25.30;41.80
12156;DHT22;6141;49.092;8.516;2023-07-29T12:50:25;25.30;41.00
12156;DHT22;6141;49.092;8.516;2023-07-29T12:52:53;25.30;41.30
12156;DHT22;6141;49.092;8.516;2023-07-29T12:55:21;25.30;39.30
12156;DHT22;6141;49.092;8.516;2023-07-29T12:57:50;25.40;38.60
12156;DHT22;6141;49.092;8.516;2023-07-29T13:00:18;25.30;43.30
12156;DHT22;6141;49.092;8.516;2023-07-29T13:02:46;25.20;41.20
12156;DHT22;6141;49.092;8.516;2023-07-29T13:05:14;25.20;42.10
12156;DHT22;6141;49.092;8.516;2023-07-29T13:07:44;25.30;33.00
12156;DHT22;6141;49.092;8.516;2023-07-29T13:10:13;25.50;34.40
12156;DHT22;6141;49.092;8.516;2023-07-29T13:12:41;25.40;31.50
12156;DHT22;6141;49.092;8.516;2023-07-29T13:15:09;25.20;32.60
12156;DHT22;6141;49.092;8.516;2023-07-29T13:17:38;25.00;32.50
12156;DHT22;6141;49.092;8.516;2023-07-29T13:20:07;25.20;34.20
12156;DHT22;6141;49.092;8.516;2023-07-29T13:22:35;25.50;32.80
12156;DHT22;6141;49.092;8.516;2023-07-29T13:25:05;25.70;34.40
12156;DHT22;6141;49.092;8.516;2023-07-29T13:27:33;25.60;30.60
12156;DHT22;6141;49.092;8.516;2023-07-29T13:30:01;25.70;31.40
12156;DHT22;6141;49.092;8.516;2023-07-29T13:32:29;25.80;30.60
12156;DHT22;6141;49.092;8.516;2023-07-29T13:34:57;25.70;29.90
12156;DHT22;6141;49.092;8.516;2023-07-29T13:37:25;25.70;30.80
12156;DHT22;6141;49.092;8.516;2023-07-29T13:39:53;25.90;30.50
12156;DHT22;6141;49.092;8.516;2023-07-29T13:42:23;25.90;29.70
12156;DHT22;6141;49.092;8.516;2023-07-29T13:44:51;25.90;30.00
12156;DHT22;6141;49.092;8.516;2023-07-29T13:47:20;26.00;30.70
12156;DHT22;6141;49.092;8.516;2023-07-29T13:49:48;25.90;30.90
12156;DHT22;6141;49.092;8.516;2023-07-29T13:52:16;25.90;31.40
12156;DHT22;6141;49.092;8.516;2023-07-29T13:54:44;25.90;31.80
12156;DHT22;6141;49.092;8.516;2023-07-29T13:57:12;26.10;31.70
12156;DHT22;6141;49.092;8.516;2023-07-29T13:59:41;26.30;30.70
12156;DHT22;6141;49.092;8.516;2023-07-29T14:02:09;26.40;30.40
12156;DHT22;6141;49.092;8.516;2023-07-29T14:04:37;26.50;31.50
12156;DHT22;6141;49.092;8.516;2023-07-29T14:07:06;26.60;29.50
12156;DHT22;6141;49.092;8.516;2023-07-29T14:09:34;26.70;29.10
12156;DHT22;6141;49.092;8.516;2023-07-29T14:12:03;26.60;26.30
12156;DHT22;6141;49.092;8.516;2023-07-29T14:14:31;26.60;28.20
12156;DHT22;6141;49.092;8.516;2023-07-29T14:17:00;26.80;28.60
12156;DHT22;6141;49.092;8.516;2023-07-29T14:19:28;26.90;27.30
12156;DHT22;6141;49.092;8.516;2023-07-29T14:21:56;26.60;25.80
12156;DHT22;6141;49.092;8.516;2023-07-29T14:24:24;26.50;26.10
12156;DHT22;6141;49.092;8.516;2023-07-29T14:26:53;26.60;27.90
12156;DHT22;6141;49.092;8.516;2023-07-29T14:29:21;26.70;26.90
12156;DHT22;6141;49.092;8.516;2023-07-29T14:31:49;26.30;26.90
12156;DHT22;6141;49.092;8.516;2023-07-29T14:34:18;26.10;28.30
12156;DHT22;6141;49.092;8.516;2023-07-29T14:36:46;26.30;28.80
12156;DHT22;6141;49.092;8.516;2023-07-29T14:39:14;26.20;27.50
12156;DHT22;6141;49.092;8.516;2023-07-29T14:41:42;26.10;26.90
12156;DHT22;6141;49.092;8.516;2023-07-29T14:44:10;25.90;26.60
12156;DHT22;6141;49.092;8.516;2023-07-29T14:46:39;25.80;28.10
12156;DHT22;6141;49.092;8.516;2023-07-29T14:49:07;25.60;28.50
12156;DHT22;6141;49.092;8.516;2023-07-29T14:51:36;25.80;29.60
12156;DHT22;6141;49.092;8.516;2023-07-29T14:54:04;25.80;28.50
12156;DHT22;6141;49.092;8.516;2023-07-29T14:56:32;25.70;28.50
12156;DHT22;6141;49.092;8.516;2023-07-29T14:59:01;25.50;29.20
12156;DHT22;6141;49.092;8.516;2023-07-29T15:01:29;25.50;29.80
12156;DHT22;6141;49.092;8.516;2023-07-29T15:03:57;25.60;29.80
12156;DHT22;6141;49.092;8.516;2023-07-29T15:06:25;25.80;28.90
12156;DHT22;6141;49.092;8.516;2023-07-29T15:08:54;25.70;29.30
12156;DHT22;6141;49.092;8.516;2023-07-29T15:11:22;25.60;28.50
12156;DHT22;6141;49.092;8.516;2023-07-29T15:13:50;25.60;28.40
12156;DHT22;6141;49.092;8.516;2023-07-29T15:16:18;25.50;29.40
12156;DHT22;6141;49.092;8.516;2023-07-29T15:18:47;25.60;28.40
12156;DHT22;6141;49.092;8.516;2023-07-29T15:21:15;25.50;28.90
12156;DHT22;6141;49.092;8.516;2023-07-29T15:23:44;25.50;29.00
12156;DHT22;6141;49.092;8.516;2023-07-29T15:26:14;25.40;30.00
12156;DHT22;6141;49.092;8.516;2023-07-29T15:28:42;25.30;29.50
12156;DHT22;6141;49.092;8.516;2023-07-29T15:31:12;25.30;28.30
12156;DHT22;6141;49.092;8.516;2023-07-29T15:33:41;25.30;28.30
12156;DHT22;6141;49.092;8.516;2023-07-29T15:36:09;25.30;29.60
12156;DHT22;6141;49.092;8.516;2023-07-29T15:38:37;25.30;29.10
12156;DHT22;6141;49.092;8.516;2023-07-29T15:41:05;25.30;28.30
12156;DHT22;6141;49.092;8.516;2023-07-29T15:43:34;25.30;29.30
12156;DHT22;6141;49.092;8.516;2023-07-29T15:46:02;25.30;29.60
12156;DHT22;6141;49.092;8.516;2023-07-29T15:48:30;25.40;28.80
12156;DHT22;6141;49.092;8.516;2023-07-29T15:50:58;25.30;28.30
12156;DHT22;6141;49.092;8.516;2023-07-29T15:53:27;25.30;29.50
12156;DHT22;6141;49.092;8.516;2023-07-29T15:55:55;25.30;28.50
12156;DHT22;6141;49.092;8.516;2023-07-29T15:58:23;25.20;28.20